createdAt,value
2023-05-10T00:00:58.575Z,101033.69
2023-05-10T00:03:06.315Z,101024.91
2023-05-10T00:05:12.191Z,101029.50
2023-05-10T00:07:18.792Z,101030.25
2023-05-10T00:09:23.887Z,101030.81
2023-05-10T00:11:31.371Z,101033.56
2023-05-10T00:13:36.287Z,101027.50
2023-05-10T00:15:41.208Z,101022.25
2023-05-10T00:17:46.109Z,101021.31
2023-05-10T00:19:53.750Z,101022.28
2023-05-10T00:21:58.677Z,101024.06
2023-05-10T00:24:03.719Z,101029.38
2023-05-10T00:26:08.572Z,101024.00
2023-05-10T00:28:13.483Z,101022.19
2023-05-10T00:30:18.579Z,101028.19
2023-05-10T00:32:24.034Z,101021.22
2023-05-10T00:34:29.560Z,101021.78
2023-05-10T00:36:37.069Z,101020.63
2023-05-10T00:38:41.915Z,101024.91
2023-05-10T00:40:46.846Z,101024.72
2023-05-10T00:42:52.299Z,101020.41
2023-05-10T00:44:57.601Z,101015.06
2023-05-10T00:47:03.416Z,101021.13
2023-05-10T00:49:08.331Z,101022.81
2023-05-10T00:51:13.229Z,101028.03
2023-05-10T00:53:21.132Z,101022.78
2023-05-10T00:55:27.059Z,101034.97
2023-05-10T00:57:32.429Z,101030.53
2023-05-10T00:59:37.588Z,101040.16
2023-05-10T01:01:42.544Z,101039.13
2023-05-10T01:03:48.082Z,101050.44
2023-05-10T01:05:53.814Z,101039.75
2023-05-10T01:07:59.090Z,101047.63
2023-05-10T01:10:06.971Z,101047.56
2023-05-10T01:12:11.897Z,101047.56
2023-05-10T01:14:17.141Z,101051.00
2023-05-10T01:16:22.549Z,101054.34
2023-05-10T01:18:29.270Z,101051.31
2023-05-10T01:20:44.640Z,101049.72
2023-05-10T01:23:25.237Z,101053.16
2023-05-10T01:26:02.452Z,101053.88
2023-05-10T01:28:43.183Z,101053.94
2023-05-10T01:31:22.348Z,101053.03
2023-05-10T01:33:34.329Z,101061.59
2023-05-10T01:35:44.173Z,101064.22
2023-05-10T01:37:54.004Z,101056.34
2023-05-10T01:40:04.386Z,101062.31
2023-05-10T01:42:14.507Z,101057.91
2023-05-10T01:44:36.747Z,101064.91
2023-05-10T01:46:43.680Z,101066.69
2023-05-10T01:48:54.708Z,101063.13
2023-05-10T01:51:01.348Z,101073.59
2023-05-10T01:53:09.640Z,101075.25
2023-05-10T01:55:18.809Z,101075.25
2023-05-10T01:57:26.500Z,101075.84
2023-05-10T01:59:37.798Z,101077.53
2023-05-10T02:01:44.049Z,101070.56
2023-05-10T02:03:53.823Z,101072.28
2023-05-10T02:06:00.446Z,101076.47
2023-05-10T02:08:07.331Z,101073.94
2023-05-10T02:10:15.727Z,101075.47
2023-05-10T02:12:22.500Z,101077.22
2023-05-10T02:14:30.613Z,101083.38
2023-05-10T02:16:36.701Z,101073.69
2023-05-10T02:18:44.670Z,101076.06
2023-05-10T02:20:53.614Z,101077.69
2023-05-10T02:23:02.005Z,101076.91
2023-05-10T02:25:07.880Z,101081.28
2023-05-10T02:27:14.214Z,101076.91
2023-05-10T02:29:21.273Z,101086.59
2023-05-10T02:31:30.894Z,101086.72
2023-05-10T02:33:36.596Z,101091.88
2023-05-10T02:35:42.560Z,101090.75
2023-05-10T02:37:52.280Z,101087.22
2023-05-10T02:40:00.702Z,101090.88
2023-05-10T02:42:06.358Z,101090.09
2023-05-10T02:44:13.128Z,101097.00
2023-05-10T02:46:18.011Z,101094.91
2023-05-10T02:48:26.217Z,101098.41
2023-05-10T02:50:33.832Z,101095.00
2023-05-10T02:52:44.715Z,101099.50
2023-05-10T02:54:56.472Z,101094.25
2023-05-10T02:57:04.196Z,101102.13
2023-05-10T02:59:09.647Z,101096.03
2023-05-10T03:01:14.576Z,101101.16
2023-05-10T03:03:19.452Z,101095.88
2023-05-10T03:05:24.643Z,101094.13
2023-05-10T03:07:29.560Z,101096.09
2023-05-10T03:09:34.932Z,101097.00
2023-05-10T03:11:54.228Z,101094.38
2023-05-10T03:14:12.578Z,101097.97
2023-05-10T03:16:20.768Z,101092.00
2023-05-10T03:18:27.510Z,101094.31
2023-05-10T03:20:38.003Z,101097.81
2023-05-10T03:22:48.377Z,101095.97
2023-05-10T03:24:53.858Z,101096.81
2023-05-10T03:27:05.436Z,101105.81
2023-05-10T03:29:11.207Z,101101.28
2023-05-10T03:31:17.001Z,101111.22
2023-05-10T03:33:22.465Z,101105.69
2023-05-10T03:35:28.558Z,101111.16
2023-05-10T03:37:33.618Z,101109.63
2023-05-10T03:39:38.381Z,101102.03
2023-05-10T03:41:43.224Z,101108.34
2023-05-10T03:43:50.831Z,101111.59
2023-05-10T03:45:58.622Z,101112.75
2023-05-10T03:48:03.981Z,101109.31
2023-05-10T03:50:12.564Z,101109.34
2023-05-10T03:52:17.695Z,101109.63
2023-05-10T03:54:23.704Z,101111.34
2023-05-10T03:56:29.209Z,101113.19
2023-05-10T03:58:34.151Z,101113.06
2023-05-10T04:00:44.845Z,101119.34
2023-05-10T04:02:49.903Z,101119.34
2023-05-10T04:04:55.341Z,101120.41
2023-05-10T04:07:00.409Z,101121.88
2023-05-10T04:09:05.468Z,101121.25
2023-05-10T04:11:11.430Z,101122.19
2023-05-10T04:13:16.219Z,101134.44
2023-05-10T04:15:22.602Z,101129.44
2023-05-10T04:17:30.447Z,101133.84
2023-05-10T04:19:35.935Z,101132.75
2023-05-10T04:21:40.961Z,101139.78
2023-05-10T04:23:45.932Z,101134.44
2023-05-10T04:25:50.892Z,101129.31
2023-05-10T04:27:57.187Z,101123.38
2023-05-10T04:30:02.400Z,101122.28
2023-05-10T04:32:07.915Z,101131.28
2023-05-10T04:34:15.376Z,101138.19
2023-05-10T04:36:20.371Z,101136.28
2023-05-10T04:38:25.746Z,101138.78
2023-05-10T04:40:30.793Z,101143.47
2023-05-10T04:42:35.669Z,101143.38
2023-05-10T04:44:40.836Z,101142.38
2023-05-10T04:46:45.935Z,101148.97
2023-05-10T04:48:51.023Z,101146.34
2023-05-10T04:50:58.686Z,101151.28
2023-05-10T04:53:06.107Z,101149.50
2023-05-10T04:55:11.848Z,101151.16
2023-05-10T04:57:16.750Z,101155.44
2023-05-10T04:59:22.403Z,101151.97
2023-05-10T05:01:27.500Z,101155.56
2023-05-10T05:03:32.465Z,101153.72
2023-05-10T05:05:37.657Z,101163.38
2023-05-10T05:07:45.098Z,101156.22
2023-05-10T05:09:49.943Z,101164.88
2023-05-10T05:11:54.973Z,101167.56
2023-05-10T05:14:02.975Z,101164.06
2023-05-10T05:16:09.314Z,101175.31
2023-05-10T05:18:14.344Z,101167.63
2023-05-10T05:20:20.204Z,101176.38
2023-05-10T05:22:29.024Z,101186.88
2023-05-10T05:24:39.794Z,101177.19
2023-05-10T05:26:44.714Z,101184.84
2023-05-10T05:28:50.006Z,101187.28
2023-05-10T05:30:55.330Z,101188.16
2023-05-10T05:33:00.735Z,101188.03
2023-05-10T05:35:05.676Z,101194.16
2023-05-10T05:37:10.581Z,101190.03
2023-05-10T05:39:15.574Z,101192.75
2023-05-10T05:41:23.934Z,101194.25
2023-05-10T05:43:29.161Z,101198.44
2023-05-10T05:45:33.918Z,101199.34
2023-05-10T05:47:38.729Z,101192.19
2023-05-10T05:49:43.617Z,101200.66
2023-05-10T05:51:50.216Z,101195.94
2023-05-10T05:53:55.351Z,101208.66
2023-05-10T05:56:01.264Z,101207.53
2023-05-10T05:58:08.581Z,101203.28
2023-05-10T06:00:14.230Z,101205.03
2023-05-10T06:02:19.074Z,101205.41
2023-05-10T06:04:24.142Z,101203.13
2023-05-10T06:06:29.450Z,101210.91
2023-05-10T06:08:35.250Z,101207.41
2023-05-10T06:10:40.272Z,101215.88
2023-05-10T06:12:45.204Z,101213.06
2023-05-10T06:14:53.906Z,101210.00
2023-05-10T06:17:00.878Z,101212.63
2023-05-10T06:19:06.195Z,101213.78
2023-05-10T06:21:11.152Z,101211.69
2023-05-10T06:23:16.060Z,101211.66
2023-05-10T06:25:21.297Z,101210.56
2023-05-10T06:27:27.179Z,101214.13
2023-05-10T06:29:32.117Z,101209.53
2023-05-10T06:31:39.534Z,101214.38
2023-05-10T06:33:44.530Z,101214.59
2023-05-10T06:35:49.555Z,101216.31
2023-05-10T06:37:56.087Z,101217.94
2023-05-10T06:40:01.023Z,101221.13
2023-05-10T06:42:05.925Z,101214.69
2023-05-10T06:44:10.776Z,101220.47
2023-05-10T06:46:15.750Z,101218.47
2023-05-10T06:48:23.969Z,101218.38
2023-05-10T06:50:31.428Z,101222.88
2023-05-10T06:52:36.239Z,101223.75
2023-05-10T06:54:41.180Z,101226.22
2023-05-10T06:56:46.014Z,101222.94
2023-05-10T06:58:50.997Z,101226.16
2023-05-10T07:00:56.733Z,101223.94
2023-05-10T07:03:01.708Z,101235.13
2023-05-10T07:05:10.107Z,101234.28
2023-05-10T07:07:14.923Z,101236.66
2023-05-10T07:09:19.840Z,101232.81
2023-05-10T07:11:25.174Z,101230.09
2023-05-10T07:13:29.884Z,101236.41
2023-05-10T07:15:34.743Z,101235.88
2023-05-10T07:17:40.193Z,101240.44
2023-05-10T07:19:45.634Z,101243.97
2023-05-10T07:21:53.649Z,101241.06
2023-05-10T07:24:01.541Z,101236.84
2023-05-10T07:26:06.336Z,101242.88
2023-05-10T07:28:11.154Z,101246.63
2023-05-10T07:30:17.402Z,101249.00
2023-05-10T07:32:22.799Z,101250.44
2023-05-10T07:34:28.058Z,101250.28
2023-05-10T07:36:35.739Z,101250.94
2023-05-10T07:38:43.325Z,101252.63
2023-05-10T07:40:48.015Z,101246.28
2023-05-10T07:42:53.646Z,101253.53
2023-05-10T07:44:59.251Z,101256.44
2023-05-10T07:47:04.073Z,101255.78
2023-05-10T07:49:08.900Z,101252.34
2023-05-10T07:51:13.741Z,101261.41
2023-05-10T07:53:19.879Z,101260.66
2023-05-10T07:55:27.600Z,101255.13
2023-05-10T07:57:32.624Z,101261.47
2023-05-10T07:59:37.912Z,101262.59
2023-05-10T08:01:42.887Z,101262.41
2023-05-10T08:03:48.002Z,101255.00
2023-05-10T08:05:53.620Z,101264.50
2023-05-10T08:08:01.446Z,101270.13
2023-05-10T08:10:07.031Z,101266.44
2023-05-10T08:12:14.752Z,101277.94
2023-05-10T08:14:19.701Z,101275.50
2023-05-10T08:16:32.996Z,101278.59
2023-05-10T08:18:38.150Z,101277.81
2023-05-10T08:20:43.073Z,101275.63
2023-05-10T08:22:49.914Z,101283.97
2023-05-10T08:24:56.761Z,101279.03
2023-05-10T08:27:01.996Z,101285.53
2023-05-10T08:29:09.957Z,101286.97
2023-05-10T08:31:14.784Z,101290.66
2023-05-10T08:33:19.727Z,101290.41
2023-05-10T08:35:28.696Z,101290.69
2023-05-10T08:37:34.336Z,101290.81
2023-05-10T08:39:39.219Z,101292.31
2023-05-10T08:41:47.840Z,101292.66
2023-05-10T08:43:54.142Z,101296.09
2023-05-10T08:46:05.206Z,101308.06
2023-05-10T08:48:11.354Z,101295.63
2023-05-10T08:50:17.525Z,101302.50
2023-05-10T08:52:22.866Z,101309.81
2023-05-10T08:54:31.613Z,101316.47
2023-05-10T08:56:37.737Z,101314.31
2023-05-10T08:58:42.980Z,101317.31
2023-05-10T09:00:48.198Z,101316.19
2023-05-10T09:03:00.457Z,101319.38
2023-05-10T09:05:05.996Z,101329.56
2023-05-10T09:07:11.160Z,101326.41
2023-05-10T09:09:16.534Z,101328.31
2023-05-10T09:11:26.540Z,101324.75
2023-05-10T09:13:32.571Z,101323.75
2023-05-10T09:15:37.684Z,101330.31
2023-05-10T09:17:44.492Z,101331.91
2023-05-10T09:19:52.384Z,101329.75
2023-05-10T09:21:57.401Z,101341.22
2023-05-10T09:24:07.354Z,101334.38
2023-05-10T09:26:12.167Z,101336.41
2023-05-10T09:28:17.200Z,101335.88
2023-05-10T09:30:28.643Z,101333.50
2023-05-10T09:32:43.768Z,101341.66
2023-05-10T09:34:54.014Z,101339.94
2023-05-10T09:37:02.163Z,101345.81
2023-05-10T09:39:07.283Z,101338.09
2023-05-10T09:41:20.246Z,101348.47
2023-05-10T09:43:31.619Z,101355.53
2023-05-10T09:45:38.950Z,101355.88
2023-05-10T09:47:44.301Z,101362.28
2023-05-10T09:49:54.376Z,101358.53
2023-05-10T09:52:05.477Z,101361.94
2023-05-10T09:54:14.851Z,101360.19
2023-05-10T09:56:41.503Z,101357.25
2023-05-10T09:58:46.615Z,101366.03
2023-05-10T10:00:55.370Z,101366.25
2023-05-10T10:03:01.373Z,101364.22
2023-05-10T10:05:11.112Z,101358.19
2023-05-10T10:07:16.194Z,101364.69
2023-05-10T10:09:21.077Z,101356.97
2023-05-10T10:11:30.545Z,101357.41
2023-05-10T10:13:36.423Z,101356.38
2023-05-10T10:15:41.756Z,101360.69
2023-05-10T10:17:47.955Z,101360.19
2023-05-10T10:19:53.410Z,101370.88
2023-05-10T10:22:01.446Z,101366.03
2023-05-10T10:24:06.962Z,101362.84
2023-05-10T10:26:12.317Z,101363.31
2023-05-10T10:28:30.870Z,101362.47
2023-05-10T10:30:40.931Z,101369.03
2023-05-10T10:33:16.479Z,101370.56
2023-05-10T10:35:25.999Z,101375.19
2023-05-10T10:37:51.413Z,101377.06
2023-05-10T10:39:59.329Z,101375.19
2023-05-10T10:42:04.664Z,101377.81
2023-05-10T10:44:33.165Z,101378.44
2023-05-10T10:46:38.792Z,101387.38
2023-05-10T10:48:43.663Z,101385.41
2023-05-10T10:50:49.554Z,101390.09
2023-05-10T10:52:57.694Z,101386.22
2023-05-10T10:55:05.154Z,101389.22
2023-05-10T10:57:16.930Z,101392.63
2023-05-10T10:59:30.966Z,101388.28
2023-05-10T11:01:38.125Z,101400.38
2023-05-10T11:03:43.196Z,101402.19
2023-05-10T11:05:48.684Z,101390.81
2023-05-10T11:08:00.573Z,101395.41
2023-05-10T11:10:08.635Z,101390.84
2023-05-10T11:12:13.566Z,101388.81
2023-05-10T11:14:18.508Z,101397.06
2023-05-10T11:16:24.967Z,101395.91
2023-05-10T11:18:31.968Z,101393.91
2023-05-10T11:20:43.094Z,101406.00
2023-05-10T11:22:54.766Z,101400.19
2023-05-10T11:25:05.154Z,101395.50
2023-05-10T11:27:10.227Z,101399.81
2023-05-10T11:29:17.008Z,101408.56
2023-05-10T11:31:23.339Z,101404.97
2023-05-10T11:33:31.325Z,101400.50
2023-05-10T11:35:43.405Z,101399.31
2023-05-10T11:37:52.240Z,101401.88
2023-05-10T11:39:59.149Z,101399.59
2023-05-10T11:42:06.732Z,101401.22
2023-05-10T11:44:13.309Z,101409.47
2023-05-10T11:46:21.466Z,101406.75
2023-05-10T11:48:27.394Z,101406.06
2023-05-10T11:50:32.986Z,101400.50
2023-05-10T11:52:40.643Z,101405.03
2023-05-10T11:54:50.032Z,101402.13
2023-05-10T11:56:54.952Z,101409.06
2023-05-10T11:59:05.628Z,101403.31
2023-05-10T12:01:11.961Z,101410.56
2023-05-10T12:03:17.364Z,101406.22
2023-05-10T12:05:22.931Z,101414.19
2023-05-10T12:07:27.850Z,101413.78
2023-05-10T12:09:43.100Z,101422.53
2023-05-10T12:11:48.736Z,101417.13
2023-05-10T12:13:54.635Z,101413.97
2023-05-10T12:16:04.020Z,101416.34
2023-05-10T12:18:09.494Z,101416.06
2023-05-10T12:20:19.068Z,101422.31
2023-05-10T12:22:25.169Z,101423.09
2023-05-10T12:24:30.144Z,101427.34
2023-05-10T12:26:35.605Z,101421.97
2023-05-10T12:28:41.853Z,101428.63
2023-05-10T12:30:47.854Z,101430.16
2023-05-10T12:32:55.975Z,101431.78
2023-05-10T12:35:01.887Z,101429.63
2023-05-10T12:37:07.644Z,101429.78
2023-05-10T12:39:12.889Z,101432.97
2023-05-10T12:41:19.910Z,101432.44
2023-05-10T12:43:24.763Z,101431.81
2023-05-10T12:45:30.029Z,101424.59
2023-05-10T12:47:35.370Z,101433.50
2023-05-10T12:49:42.775Z,101442.19
2023-05-10T12:51:47.561Z,101437.97
2023-05-10T12:53:53.252Z,101449.66
2023-05-10T12:55:58.783Z,101448.16
2023-05-10T12:58:03.831Z,101448.34
2023-05-10T13:00:10.583Z,101443.53
2023-05-10T13:02:15.877Z,101442.94
2023-05-10T13:04:20.724Z,101443.34
2023-05-10T13:06:29.588Z,101443.44
2023-05-10T13:08:35.047Z,101450.25
2023-05-10T13:10:40.050Z,101449.34
2023-05-10T13:12:44.894Z,101451.84
2023-05-10T13:14:49.953Z,101447.34
2023-05-10T13:16:55.077Z,101446.53
2023-05-10T13:19:00.362Z,101453.47
2023-05-10T13:21:06.754Z,101451.84
2023-05-10T13:23:14.231Z,101455.31
2023-05-10T13:25:19.040Z,101451.66
2023-05-10T13:27:24.294Z,101461.53
2023-05-10T13:29:29.157Z,101451.22
2023-05-10T13:31:34.139Z,101458.91
2023-05-10T13:33:38.990Z,101458.84
2023-05-10T13:35:43.755Z,101456.78
2023-05-10T13:37:48.558Z,101462.53
2023-05-10T13:39:56.322Z,101466.38
2023-05-10T13:42:01.072Z,101462.81
2023-05-10T13:44:05.873Z,101458.91
2023-05-10T13:46:10.709Z,101468.50
2023-05-10T13:48:51.884Z,101465.84
2023-05-10T13:50:56.738Z,101464.13
2023-05-10T13:53:01.625Z,101467.50
2023-05-10T13:55:09.878Z,101467.94
2023-05-10T13:57:15.202Z,101471.22
2023-05-10T13:59:20.138Z,101469.34
2023-05-10T14:01:25.102Z,101466.13
2023-05-10T14:03:30.429Z,101471.28
2023-05-10T14:05:35.662Z,101470.78
2023-05-10T14:07:42.421Z,101468.41
2023-05-10T14:09:47.234Z,101468.88
2023-05-10T14:11:54.664Z,101463.13
2023-05-10T14:13:59.554Z,101465.59
2023-05-10T14:16:04.444Z,101465.75
2023-05-10T14:18:10.067Z,101470.22
2023-05-10T14:20:15.604Z,101468.72
2023-05-10T14:22:20.814Z,101469.19
2023-05-10T14:24:25.685Z,101468.91
2023-05-10T14:26:30.807Z,101462.91
2023-05-10T14:28:38.360Z,101462.16
2023-05-10T14:30:44.087Z,101457.25
2023-05-10T14:32:48.924Z,101457.75
2023-05-10T14:34:54.006Z,101457.44
2023-05-10T14:36:59.633Z,101459.72
2023-05-10T14:39:04.747Z,101458.47
2023-05-10T14:41:11.806Z,101466.09
2023-05-10T14:43:16.813Z,101465.19
2023-05-10T14:45:25.053Z,101457.00
2023-05-10T14:47:30.306Z,101452.63
2023-05-10T14:49:35.323Z,101452.47
2023-05-10T14:51:41.126Z,101462.19
2023-05-10T14:53:46.416Z,101463.41
2023-05-10T14:55:51.454Z,101461.34
2023-05-10T14:57:56.286Z,101462.25
2023-05-10T15:00:01.316Z,101459.72
2023-05-10T15:02:10.660Z,101456.50
2023-05-10T15:04:17.667Z,101461.16
2023-05-10T15:06:27.580Z,101454.22
2023-05-10T15:08:33.756Z,101458.75
2023-05-10T15:10:38.891Z,101459.06
2023-05-10T15:12:44.610Z,101461.53
2023-05-10T15:14:49.482Z,101457.00
2023-05-10T15:16:55.282Z,101460.53
2023-05-10T15:19:03.021Z,101465.75
2023-05-10T15:21:07.921Z,101459.59
2023-05-10T15:23:12.847Z,101459.09
2023-05-10T15:25:18.453Z,101464.84
2023-05-10T15:27:23.481Z,101475.88
2023-05-10T15:29:28.914Z,101468.34
2023-05-10T15:31:36.232Z,101474.91
2023-05-10T15:33:42.517Z,101474.00
2023-05-10T15:35:49.999Z,101474.34
2023-05-10T15:37:54.923Z,101473.31
2023-05-10T15:40:04.977Z,101478.47
2023-05-10T15:42:10.126Z,101477.94
2023-05-10T15:44:14.984Z,101481.56
2023-05-10T15:46:19.831Z,101483.53
2023-05-10T15:48:24.728Z,101487.56
2023-05-10T15:50:29.930Z,101485.03
2023-05-10T15:52:37.872Z,101488.28
2023-05-10T15:54:42.980Z,101486.75
2023-05-10T15:56:48.220Z,101488.94
2023-05-10T15:58:53.453Z,101492.22
2023-05-10T16:01:01.889Z,101491.41
2023-05-10T16:03:07.142Z,101489.72
2023-05-10T16:05:14.284Z,101489.06
2023-05-10T16:07:19.262Z,101498.00
2023-05-10T16:09:26.711Z,101495.88
2023-05-10T16:11:31.668Z,101497.44
2023-05-10T16:13:37.676Z,101501.47
2023-05-10T16:15:43.296Z,101500.00
2023-05-10T16:17:48.437Z,101505.59
2023-05-10T16:19:53.495Z,101502.06
2023-05-10T16:22:01.232Z,101512.38
2023-05-10T16:24:06.644Z,101515.09
2023-05-10T16:26:14.462Z,101516.28
2023-05-10T16:28:21.158Z,101522.66
2023-05-10T16:30:27.693Z,101523.09
2023-05-10T16:32:35.582Z,101522.00
2023-05-10T16:34:40.801Z,101524.50
2023-05-10T16:36:46.068Z,101520.94
2023-05-10T16:38:51.721Z,101526.84
2023-05-10T16:40:57.595Z,101525.63
2023-05-10T16:43:04.964Z,101528.22
2023-05-10T16:45:11.481Z,101528.38
2023-05-10T16:47:16.853Z,101524.44
2023-05-10T16:49:23.669Z,101526.47
2023-05-10T16:51:30.569Z,101530.75
2023-05-10T16:53:35.486Z,101531.69
2023-05-10T16:55:40.491Z,101527.47
2023-05-10T16:57:46.116Z,101526.84
2023-05-10T16:59:55.937Z,101527.34
2023-05-10T17:02:01.084Z,101531.19
2023-05-10T17:04:06.685Z,101536.91
2023-05-10T17:06:11.947Z,101533.22
2023-05-10T17:08:16.824Z,101540.03
2023-05-10T17:10:22.650Z,101536.47
2023-05-10T17:12:28.039Z,101544.78
2023-05-10T17:14:33.040Z,101544.63
2023-05-10T17:16:40.847Z,101535.94
2023-05-10T17:18:46.490Z,101536.50
2023-05-10T17:20:51.575Z,101542.41
2023-05-10T17:22:56.483Z,101539.09
2023-05-10T17:25:01.446Z,101536.66
2023-05-10T17:27:07.205Z,101539.25
2023-05-10T17:29:14.591Z,101540.16
2023-05-10T17:31:19.492Z,101541.31
2023-05-10T17:33:27.115Z,101537.13
2023-05-10T17:35:32.753Z,101541.28
2023-05-10T17:37:37.898Z,101543.66
2023-05-10T17:39:42.791Z,101548.63
2023-05-10T17:41:47.968Z,101540.06
2023-05-10T17:43:53.361Z,101542.88
2023-05-10T17:45:58.508Z,101541.81
2023-05-10T17:48:03.626Z,101538.53
2023-05-10T17:50:15.550Z,101549.53
2023-05-10T17:52:20.547Z,101546.84
2023-05-10T17:54:25.512Z,101547.66
2023-05-10T17:56:30.540Z,101543.44
2023-05-10T17:58:38.494Z,101550.00
2023-05-10T18:00:43.597Z,101551.19
2023-05-10T18:02:48.737Z,101556.34
2023-05-10T18:04:53.753Z,101548.41
2023-05-10T18:07:01.912Z,101554.31
2023-05-10T18:09:07.720Z,101551.94
2023-05-10T18:11:14.072Z,101552.97
2023-05-10T18:13:20.095Z,101555.09
2023-05-10T18:15:25.077Z,101558.41
2023-05-10T18:17:30.278Z,101552.63
2023-05-10T18:19:35.319Z,101555.03
2023-05-10T18:21:40.746Z,101552.84
2023-05-10T18:23:48.255Z,101556.91
2023-05-10T18:25:53.888Z,101564.56
2023-05-10T18:27:59.073Z,101561.41
2023-05-10T18:30:05.132Z,101571.47
2023-05-10T18:32:10.093Z,101564.16
2023-05-10T18:34:15.306Z,101564.63
2023-05-10T18:36:20.217Z,101565.38
2023-05-10T18:38:25.165Z,101559.84
2023-05-10T18:40:32.956Z,101568.47
2023-05-10T18:42:38.394Z,101565.91
2023-05-10T18:44:43.389Z,101568.38
2023-05-10T18:46:49.250Z,101569.47
2023-05-10T18:48:54.380Z,101569.59
2023-05-10T18:50:59.451Z,101575.72
2023-05-10T18:53:04.490Z,101572.75
2023-05-10T18:55:11.547Z,101575.00
2023-05-10T18:57:21.529Z,101573.66
2023-05-10T18:59:28.009Z,101575.00
2023-05-10T19:01:32.970Z,101578.94
2023-05-10T19:03:38.844Z,101584.72
2023-05-10T19:05:43.692Z,101584.47
2023-05-10T19:07:49.099Z,101581.22
2023-05-10T19:09:54.716Z,101583.06
2023-05-10T19:11:59.930Z,101588.22
2023-05-10T19:14:08.212Z,101591.84
2023-05-10T19:16:16.229Z,101596.16
2023-05-10T19:18:21.685Z,101594.91
2023-05-10T19:20:28.248Z,101598.22
2023-05-10T19:22:47.134Z,101601.19
2023-05-10T19:25:01.586Z,101599.81
2023-05-10T19:27:06.950Z,101597.34
2023-05-10T19:29:17.741Z,101611.00
2023-05-10T19:31:25.592Z,101605.09
2023-05-10T19:33:30.907Z,101607.81
2023-05-10T19:35:35.981Z,101612.44
2023-05-10T19:37:46.149Z,101609.91
2023-05-10T19:39:51.935Z,101611.59
2023-05-10T19:41:57.114Z,101610.91
2023-05-10T19:44:02.149Z,101620.66
2023-05-10T19:46:10.163Z,101620.91
2023-05-10T19:48:15.499Z,101626.34
2023-05-10T19:50:21.283Z,101630.78
2023-05-10T19:52:26.898Z,101622.16
2023-05-10T19:54:32.134Z,101631.66
2023-05-10T19:56:38.350Z,101633.53
2023-05-10T19:58:44.374Z,101633.66
2023-05-10T20:00:49.563Z,101629.16
2023-05-10T20:02:58.259Z,101630.31
2023-05-10T20:05:03.281Z,101631.19
2023-05-10T20:07:08.414Z,101631.19
2023-05-10T20:09:13.573Z,101629.03
2023-05-10T20:11:20.091Z,101635.06
2023-05-10T20:13:27.380Z,101634.09
2023-05-10T20:15:33.102Z,101629.16
2023-05-10T20:17:39.812Z,101635.34
2023-05-10T20:19:50.347Z,101633.84
2023-05-10T20:21:59.017Z,101635.41
2023-05-10T20:24:06.851Z,101635.00
2023-05-10T20:26:12.926Z,101636.72
2023-05-10T20:28:18.199Z,101648.19
2023-05-10T20:30:23.295Z,101636.72
2023-05-10T20:32:30.937Z,101645.47
2023-05-10T20:34:38.051Z,101633.00
2023-05-10T20:36:45.973Z,101649.78
2023-05-10T20:38:52.279Z,101641.88
2023-05-10T20:40:57.666Z,101650.75
2023-05-10T20:43:02.644Z,101651.59
2023-05-10T20:45:08.675Z,101646.63
2023-05-10T20:47:14.047Z,101646.41
2023-05-10T20:49:19.988Z,101650.91
2023-05-10T20:51:30.307Z,101651.03
2023-05-10T20:53:38.049Z,101639.66
2023-05-10T20:55:43.145Z,101645.50
2023-05-10T20:57:48.642Z,101649.84
2023-05-10T20:59:53.652Z,101641.09
2023-05-10T21:01:59.839Z,101652.28
2023-05-10T21:04:05.137Z,101648.63
2023-05-10T21:06:10.487Z,101646.25
2023-05-10T21:08:15.526Z,101644.69
2023-05-10T21:10:25.728Z,101642.97
2023-05-10T21:12:31.059Z,101643.06
2023-05-10T21:14:36.552Z,101633.50
2023-05-10T21:16:42.070Z,101640.53
2023-05-10T21:18:47.173Z,101644.25
2023-05-10T21:20:53.064Z,101640.81
2023-05-10T21:22:58.731Z,101638.31
2023-05-10T21:25:04.018Z,101640.91
2023-05-10T21:27:11.553Z,101641.88
2023-05-10T21:29:16.580Z,101635.88
2023-05-10T21:31:22.391Z,101638.25
2023-05-10T21:33:27.506Z,101640.19
2023-05-10T21:35:33.436Z,101638.53
2023-05-10T21:37:38.330Z,101628.97
2023-05-10T21:39:43.097Z,101639.50
2023-05-10T21:41:47.978Z,101636.72
2023-05-10T21:43:56.591Z,101640.47
2023-05-10T21:46:01.628Z,101634.56
2023-05-10T21:48:06.985Z,101624.19
2023-05-10T21:50:13.138Z,101633.69
2023-05-10T21:52:18.106Z,101628.53
2023-05-10T21:54:23.079Z,101638.09
2023-05-10T21:56:32.166Z,101639.75
2023-05-10T21:58:37.204Z,101637.25
2023-05-10T22:00:47.302Z,101635.53
2023-05-10T22:02:52.537Z,101643.22
2023-05-10T22:04:57.456Z,101632.78
2023-05-10T22:07:02.486Z,101636.31
2023-05-10T22:09:08.021Z,101638.94
2023-05-10T22:11:13.068Z,101634.59
2023-05-10T22:13:18.057Z,101639.06
2023-05-10T22:15:23.036Z,101638.06
2023-05-10T22:17:31.581Z,101638.09
2023-05-10T22:19:36.529Z,101644.31
2023-05-10T22:21:41.512Z,101636.50
2023-05-10T22:23:46.470Z,101633.91
2023-05-10T22:25:51.309Z,101634.72
2023-05-10T22:27:56.733Z,101638.31
2023-05-10T22:30:01.695Z,101635.91
2023-05-10T22:32:07.015Z,101637.78
2023-05-10T22:34:14.638Z,101644.66
2023-05-10T22:36:19.540Z,101642.88
2023-05-10T22:38:25.699Z,101633.16
2023-05-10T22:40:30.787Z,101640.03
2023-05-10T22:42:36.541Z,101639.91
2023-05-10T22:44:41.360Z,101646.97
2023-05-10T22:46:46.415Z,101648.75
2023-05-10T22:48:51.833Z,101642.47
2023-05-10T22:51:00.248Z,101645.97
2023-05-10T22:53:08.061Z,101645.09
2023-05-10T22:55:13.231Z,101644.13
2023-05-10T22:57:18.434Z,101648.53
2023-05-10T22:59:23.874Z,101653.00
2023-05-10T23:01:32.622Z,101641.78
2023-05-10T23:03:37.765Z,101648.75
2023-05-10T23:05:42.606Z,101645.28
2023-05-10T23:07:53.443Z,101648.94
2023-05-10T23:09:58.301Z,101644.53
2023-05-10T23:12:03.232Z,101654.25
2023-05-10T23:14:08.346Z,101651.59
2023-05-10T23:16:13.535Z,101652.34
2023-05-10T23:18:19.077Z,101645.34
2023-05-10T23:20:27.205Z,101647.16
2023-05-10T23:22:32.307Z,101652.47
2023-05-10T23:24:39.842Z,101651.50
2023-05-10T23:26:46.712Z,101652.41
2023-05-10T23:28:51.535Z,101640.13
2023-05-10T23:30:58.547Z,101644.63
2023-05-10T23:33:03.722Z,101641.09
2023-05-10T23:35:09.813Z,101648.88
2023-05-10T23:37:15.086Z,101645.28
2023-05-10T23:39:20.061Z,101647.03
2023-05-10T23:41:27.727Z,101639.97
2023-05-10T23:43:32.634Z,101639.06
2023-05-10T23:45:37.797Z,101640.78
2023-05-10T23:47:42.996Z,101640.72
2023-05-10T23:49:47.997Z,101631.03
2023-05-10T23:51:52.911Z,101631.94
2023-05-10T23:53:57.768Z,101637.25
2023-05-10T23:56:02.744Z,101634.56
2023-05-10T23:58:10.143Z,101640.69
